createdAt,value
2019-04-10T00:00:00.230Z,3.34
2019-04-10T00:02:48.166Z,3.32
2019-04-10T00:05:36.174Z,3.27
2019-04-10T00:08:22.406Z,3.23
2019-04-10T00:11:10.246Z,3.20
2019-04-10T00:13:58.710Z,3.16
2019-04-10T00:16:45.113Z,3.83
2019-04-10T00:19:32.906Z,3.28
2019-04-10T00:22:20.160Z,3.84
2019-04-10T00:25:06.956Z,3.26
2019-04-10T00:31:02.841Z,2.93
2019-04-10T00:33:51.176Z,2.81
2019-04-10T00:36:37.357Z,2.73
2019-04-10T00:39:24.481Z,2.67
2019-04-10T00:42:18.989Z,3.40
2019-04-10T00:45:06.403Z,2.91
2019-04-10T00:50:59.800Z,2.74
2019-04-10T00:53:47.552Z,2.69
2019-04-10T00:59:40.799Z,2.60
2019-04-10T01:02:29.073Z,2.56
2019-04-10T01:08:22.458Z,2.47
2019-04-10T01:11:10.719Z,2.37
2019-04-10T01:14:05.396Z,2.36
2019-04-10T01:16:52.251Z,2.33
2019-04-10T01:19:40.504Z,2.97
2019-04-10T01:22:27.560Z,2.47
2019-04-10T01:31:27.263Z,2.14
2019-04-10T01:34:29.473Z,2.09
2019-04-10T01:37:16.661Z,2.02
2019-04-10T01:40:03.170Z,1.98
2019-04-10T01:49:03.063Z,1.99
2019-04-10T01:51:50.309Z,1.93
2019-04-10T01:57:44.235Z,2.56
2019-04-10T02:00:34.183Z,2.06
2019-04-10T02:06:28.139Z,1.80
2019-04-10T02:12:22.804Z,1.68
2019-04-10T02:15:14.015Z,1.65
2019-04-10T02:18:10.921Z,1.62
2019-04-10T02:20:59.118Z,1.59
2019-04-10T02:23:46.923Z,1.58
2019-04-10T02:29:54.094Z,2.26
2019-04-10T02:32:45.107Z,2.50
2019-04-10T02:38:57.473Z,1.81
2019-04-10T02:47:43.259Z,1.78
2019-04-10T02:50:29.378Z,1.73
2019-04-10T02:56:23.782Z,1.60
2019-04-10T03:02:16.213Z,1.48
2019-04-10T03:05:04.593Z,1.44
2019-04-10T03:07:50.370Z,1.41
2019-04-10T03:10:44.142Z,2.03
2019-04-10T03:13:26.857Z,2.22
2019-04-10T03:16:27.241Z,2.36
2019-04-10T03:19:14.531Z,1.76
2019-04-10T03:22:01.847Z,1.62
2019-04-10T03:24:50.660Z,1.52
2019-04-10T03:27:50.757Z,1.45
2019-04-10T03:30:53.833Z,1.38
2019-04-10T03:33:44.572Z,1.31
2019-04-10T03:36:28.029Z,1.24
2019-04-10T03:42:23.223Z,1.11
2019-04-10T03:45:09.593Z,1.07
2019-04-10T03:51:03.986Z,0.97
2019-04-10T03:53:50.801Z,0.94
2019-04-10T03:56:52.359Z,0.90
2019-04-10T03:59:40.717Z,1.54
2019-04-10T04:02:27.358Z,1.09
2019-04-10T04:05:13.271Z,0.99
2019-04-10T04:08:01.303Z,0.92
2019-04-10T04:11:03.144Z,0.88
2019-04-10T04:13:50.118Z,0.83
2019-04-10T04:16:37.335Z,0.79
2019-04-10T04:19:24.139Z,0.76
2019-04-10T04:22:25.863Z,0.74
2019-04-10T04:25:13.086Z,0.70
2019-04-10T04:28:00.839Z,1.33
2019-04-10T04:40:06.914Z,0.97
2019-04-10T04:42:57.890Z,0.88
2019-04-10T04:45:44.473Z,0.83
2019-04-10T04:51:37.465Z,0.77
2019-04-10T04:54:31.696Z,0.78
2019-04-10T04:57:18.842Z,0.77
2019-04-10T05:00:07.672Z,0.78
2019-04-10T05:03:07.842Z,0.78
2019-04-10T05:12:16.389Z,1.60
2019-04-10T05:15:02.641Z,1.14
2019-04-10T05:20:56.693Z,1.35
2019-04-10T05:23:42.917Z,2.07
2019-04-10T05:26:30.274Z,1.58
2019-04-10T05:29:18.226Z,1.51
2019-04-10T05:32:05.635Z,1.52
2019-04-10T05:34:53.178Z,1.52
2019-04-10T05:37:47.785Z,1.54
2019-04-10T05:40:36.656Z,2.35
2019-04-10T05:43:24.021Z,1.88
2019-04-10T05:46:10.669Z,1.86
2019-04-10T05:55:10.109Z,2.03
2019-04-10T05:57:59.388Z,2.10
2019-04-10T06:00:47.117Z,2.19
2019-04-10T06:06:40.875Z,2.42
2019-04-10T06:09:51.939Z,3.30
2019-04-10T06:12:28.604Z,3.72
2019-04-10T06:15:16.908Z,3.30
2019-04-10T06:18:03.064Z,3.36
2019-04-10T06:20:50.428Z,3.46
2019-04-10T06:26:44.455Z,3.74
2019-04-10T06:29:35.385Z,3.89
2019-04-10T06:32:25.519Z,3.99
2019-04-10T06:35:13.588Z,4.13
2019-04-10T06:37:59.747Z,5.09
2019-04-10T06:40:46.582Z,4.79
2019-04-10T06:46:41.708Z,5.10
2019-04-10T06:49:29.137Z,5.32
2019-04-10T06:52:16.596Z,5.56
2019-04-10T06:55:03.106Z,5.78
2019-04-10T06:57:55.047Z,5.92
2019-04-10T07:00:38.953Z,6.05
2019-04-10T07:03:45.077Z,6.17
2019-04-10T07:06:19.864Z,6.35
2019-04-10T07:09:01.646Z,6.58
2019-04-10T07:14:58.111Z,7.03
2019-04-10T07:17:43.556Z,8.20
2019-04-10T07:20:31.564Z,7.88
2019-04-10T07:23:23.397Z,7.96
2019-04-10T07:26:04.374Z,8.06
2019-04-10T07:28:51.913Z,8.20
2019-04-10T07:31:39.942Z,8.52
2019-04-10T07:34:29.799Z,8.88
2019-04-10T07:37:17.518Z,9.25
2019-04-10T07:40:04.085Z,9.34
2019-04-10T07:42:50.421Z,9.58
2019-04-10T07:45:36.972Z,9.78
2019-04-10T07:48:25.121Z,9.91
2019-04-10T07:51:11.304Z,10.15
2019-04-10T07:53:58.107Z,10.40
2019-04-10T07:56:45.567Z,10.58
2019-04-10T07:59:33.406Z,10.78
2019-04-10T08:02:19.734Z,10.86
2019-04-10T08:05:08.058Z,10.98
2019-04-10T08:07:55.953Z,11.03
2019-04-10T08:10:43.674Z,11.11
2019-04-10T08:13:28.920Z,11.17
2019-04-10T08:16:17.032Z,11.27
2019-04-10T08:19:04.030Z,11.25
2019-04-10T08:21:50.839Z,12.55
2019-04-10T08:24:40.769Z,11.75
2019-04-10T08:27:27.987Z,11.80
2019-04-10T08:30:15.417Z,11.88
2019-04-10T08:33:04.449Z,11.88
2019-04-10T08:35:50.567Z,11.84
2019-04-10T08:38:38.064Z,12.01
2019-04-10T08:41:26.838Z,13.40
2019-04-10T08:44:13.537Z,12.62
2019-04-10T08:47:00.105Z,12.49
2019-04-10T08:49:47.475Z,12.49
2019-04-10T08:55:42.031Z,12.51
2019-04-10T08:58:29.283Z,12.55
2019-04-10T09:01:23.596Z,12.44
2019-04-10T09:04:12.506Z,12.60
2019-04-10T09:07:01.396Z,12.76
2019-04-10T09:09:46.046Z,12.98
2019-04-10T09:12:33.648Z,13.12
2019-04-10T09:15:19.567Z,13.07
2019-04-10T09:18:08.151Z,13.16
2019-04-10T09:20:55.092Z,13.35
2019-04-10T09:23:47.347Z,13.52
2019-04-10T09:26:28.768Z,13.53
2019-04-10T09:29:16.100Z,13.73
2019-04-10T09:32:04.395Z,13.93
2019-04-10T09:34:50.384Z,14.23
2019-04-10T09:37:38.160Z,14.56
2019-04-10T09:40:40.257Z,14.43
2019-04-10T09:43:26.372Z,13.68
2019-04-10T09:46:13.531Z,13.05
2019-04-10T09:49:00.544Z,12.93
2019-04-10T09:51:48.185Z,13.34
2019-04-10T09:54:34.957Z,13.47
2019-04-10T09:57:22.480Z,13.80
2019-04-10T10:00:10.456Z,14.16
2019-04-10T10:02:55.805Z,14.18
2019-04-10T10:05:44.599Z,14.09
2019-04-10T10:08:31.440Z,13.94
2019-04-10T10:11:18.069Z,13.44
2019-04-10T10:14:04.324Z,13.14
2019-04-10T10:16:52.697Z,14.84
2019-04-10T10:19:40.627Z,14.08
2019-04-10T10:22:27.396Z,14.24
2019-04-10T10:25:15.226Z,14.48
2019-04-10T10:28:01.476Z,14.52
2019-04-10T10:30:49.519Z,14.05
2019-04-10T10:33:52.201Z,14.08
2019-04-10T10:36:41.923Z,14.44
2019-04-10T10:39:26.543Z,14.60
2019-04-10T10:42:13.740Z,14.82
2019-04-10T10:48:08.601Z,15.14
2019-04-10T10:50:56.214Z,15.43
2019-04-10T10:53:42.387Z,15.55
2019-04-10T10:56:30.598Z,15.26
2019-04-10T10:59:17.519Z,15.29
2019-04-10T11:02:04.352Z,16.80
2019-04-10T11:04:51.700Z,15.65
2019-04-10T11:07:38.852Z,15.74
2019-04-10T11:10:27.631Z,15.88
2019-04-10T11:13:15.023Z,16.07
2019-04-10T11:16:03.952Z,16.06
2019-04-10T11:18:48.458Z,15.67
2019-04-10T11:21:34.705Z,15.88
2019-04-10T11:24:22.827Z,16.09
2019-04-10T11:30:16.220Z,16.02
2019-04-10T11:33:04.047Z,15.98
2019-04-10T11:35:51.530Z,15.95
2019-04-10T11:38:39.688Z,15.52
2019-04-10T11:41:26.228Z,15.39
2019-04-10T11:44:14.399Z,15.35
2019-04-10T11:47:00.468Z,17.00
2019-04-10T11:49:49.576Z,15.74
2019-04-10T11:55:46.719Z,15.29
2019-04-10T11:58:29.117Z,17.14
2019-04-10T12:01:17.560Z,16.25
2019-04-10T12:04:06.750Z,16.03
2019-04-10T12:06:54.046Z,15.94
2019-04-10T12:12:25.835Z,15.78
2019-04-10T12:15:12.299Z,15.75
2019-04-10T12:17:59.025Z,15.69
2019-04-10T12:20:46.338Z,15.48
2019-04-10T12:26:40.196Z,14.45
2019-04-10T12:32:34.718Z,14.68
2019-04-10T12:35:22.621Z,16.08
2019-04-10T12:41:17.213Z,14.48
2019-04-10T12:44:03.261Z,14.57
2019-04-10T12:46:51.178Z,14.54
2019-04-10T12:49:52.159Z,15.01
2019-04-10T12:52:40.966Z,15.40
2019-04-10T12:55:28.326Z,15.61
2019-04-10T12:58:17.668Z,15.46
2019-04-10T13:01:04.476Z,15.20
2019-04-10T13:03:50.186Z,15.26
2019-04-10T13:06:52.725Z,15.43
2019-04-10T13:09:53.963Z,15.39
2019-04-10T13:12:43.183Z,15.63
2019-04-10T13:15:31.768Z,15.71
2019-04-10T13:18:18.480Z,15.64
2019-04-10T13:21:05.017Z,17.34
2019-04-10T13:23:53.047Z,16.75
2019-04-10T13:26:41.902Z,16.67
2019-04-10T13:29:36.380Z,16.51
2019-04-10T13:32:23.398Z,16.68
2019-04-10T13:35:10.201Z,16.69
2019-04-10T13:37:56.900Z,16.64
2019-04-10T13:40:43.830Z,16.26
2019-04-10T13:43:30.988Z,16.46
2019-04-10T13:46:18.493Z,16.67
2019-04-10T13:49:06.041Z,16.95
2019-04-10T13:51:51.947Z,17.03
2019-04-10T13:54:40.884Z,16.86
2019-04-10T13:57:27.045Z,16.96
2019-04-10T14:00:14.350Z,16.90
2019-04-10T14:03:01.950Z,16.43
2019-04-10T14:05:49.747Z,15.70
2019-04-10T14:09:01.808Z,15.27
2019-04-10T14:14:31.002Z,17.21
2019-04-10T14:17:19.508Z,16.40
2019-04-10T14:20:05.351Z,16.42
2019-04-10T14:23:10.481Z,16.20
2019-04-10T14:29:30.237Z,16.37
2019-04-10T14:32:17.504Z,16.36
2019-04-10T14:35:05.245Z,16.27
2019-04-10T14:37:52.713Z,16.28
2019-04-10T14:40:40.130Z,16.17
2019-04-10T14:43:28.439Z,16.22
2019-04-10T14:46:14.713Z,16.05
2019-04-10T14:49:02.823Z,17.19
2019-04-10T14:51:49.614Z,16.04
2019-04-10T14:54:37.656Z,15.93
2019-04-10T14:57:24.541Z,16.06
2019-04-10T15:00:18.111Z,15.98
2019-04-10T15:03:12.648Z,15.99
2019-04-10T15:06:01.379Z,15.80
2019-04-10T15:08:48.785Z,15.89
2019-04-10T15:11:48.962Z,15.51
2019-04-10T15:14:35.940Z,15.09
2019-04-10T15:17:23.104Z,16.27
2019-04-10T15:20:11.081Z,15.02
2019-04-10T15:22:56.784Z,14.93
2019-04-10T15:25:43.982Z,16.19
2019-04-10T15:28:31.904Z,15.11
2019-04-10T15:31:19.966Z,14.91
2019-04-10T15:34:14.676Z,15.38
2019-04-10T15:37:01.569Z,16.09
2019-04-10T15:39:49.696Z,16.88
2019-04-10T15:42:37.808Z,16.94
2019-04-10T15:45:26.027Z,16.47
2019-04-10T15:48:13.484Z,16.63
2019-04-10T15:51:00.261Z,16.96
2019-04-10T15:53:47.318Z,17.83
2019-04-10T15:56:34.749Z,18.52
2019-04-10T16:02:28.550Z,18.43
2019-04-10T16:05:15.892Z,17.01
2019-04-10T16:08:03.118Z,17.43
2019-04-10T16:11:05.523Z,15.73
2019-04-10T16:14:16.963Z,15.99
2019-04-10T16:16:59.165Z,17.82
2019-04-10T16:19:51.924Z,18.90
2019-04-10T16:22:40.542Z,18.24
2019-04-10T16:25:30.101Z,18.24
2019-04-10T16:28:18.035Z,18.63
2019-04-10T16:31:08.368Z,18.47
2019-04-10T16:33:58.896Z,18.21
2019-04-10T16:36:50.110Z,17.68
2019-04-10T16:42:43.611Z,16.13
2019-04-10T16:45:30.708Z,15.68
2019-04-10T16:48:18.909Z,15.33
2019-04-10T16:51:05.152Z,14.52
2019-04-10T16:53:53.695Z,15.35
2019-04-10T16:56:40.180Z,15.16
2019-04-10T17:02:33.892Z,12.91
2019-04-10T17:05:21.352Z,12.59
2019-04-10T17:14:23.804Z,11.69
2019-04-10T17:17:10.658Z,12.59
2019-04-10T17:19:58.998Z,11.51
2019-04-10T17:22:47.706Z,11.20
2019-04-10T17:25:32.111Z,11.02
2019-04-10T17:28:22.043Z,10.85
2019-04-10T17:31:07.503Z,10.61
2019-04-10T17:33:54.562Z,10.48
2019-04-10T17:36:41.109Z,10.31
2019-04-10T17:39:43.774Z,10.11
2019-04-10T17:42:30.489Z,9.90
2019-04-10T17:45:18.534Z,9.73
2019-04-10T17:48:05.200Z,9.56
2019-04-10T17:50:55.219Z,9.44
2019-04-10T17:53:41.869Z,9.26
2019-04-10T17:56:28.408Z,9.12
2019-04-10T17:59:16.277Z,8.98
2019-04-10T18:05:10.899Z,8.64
2019-04-10T18:07:58.697Z,8.49
2019-04-10T18:10:49.867Z,8.29
2019-04-10T18:13:31.918Z,8.13
2019-04-10T18:16:20.006Z,8.02
2019-04-10T18:19:06.873Z,7.98
2019-04-10T18:21:56.389Z,7.96
2019-04-10T18:24:43.313Z,7.87
2019-04-10T18:30:37.145Z,7.68
2019-04-10T18:33:24.545Z,7.61
2019-04-10T18:36:11.365Z,7.56
2019-04-10T18:38:59.635Z,7.51
2019-04-10T18:41:46.567Z,7.44
2019-04-10T18:44:33.536Z,7.40
2019-04-10T18:53:45.777Z,7.05
2019-04-10T18:56:33.460Z,6.98
2019-04-10T18:59:40.890Z,6.90
2019-04-10T19:02:37.044Z,6.81
2019-04-10T19:05:26.050Z,6.80
2019-04-10T19:08:14.316Z,6.76
2019-04-10T19:11:15.385Z,6.79
2019-04-10T19:14:00.709Z,6.76
2019-04-10T19:16:55.914Z,7.48
2019-04-10T19:20:02.131Z,7.01
2019-04-10T19:25:50.942Z,6.86
2019-04-10T19:31:50.337Z,6.95
2019-04-10T19:34:37.502Z,6.75
2019-04-10T19:37:24.923Z,6.66
2019-04-10T19:40:11.310Z,6.57
2019-04-10T19:49:12.285Z,6.29
2019-04-10T19:52:00.163Z,6.20
2019-04-10T19:54:47.260Z,6.09
2019-04-10T19:57:34.270Z,6.00
2019-04-10T20:00:22.148Z,5.88
2019-04-10T20:03:09.099Z,5.82
2019-04-10T20:05:57.686Z,5.76
2019-04-10T20:08:44.500Z,5.73
2019-04-10T20:11:38.698Z,6.35
2019-04-10T20:14:20.133Z,5.75
2019-04-10T20:17:08.152Z,5.55
2019-04-10T20:19:57.181Z,5.37
2019-04-10T20:22:44.013Z,5.27
2019-04-10T20:25:32.505Z,5.94
2019-04-10T20:28:19.185Z,5.36
2019-04-10T20:31:07.334Z,5.19
2019-04-10T20:33:54.763Z,5.10
2019-04-10T20:36:41.643Z,5.82
2019-04-10T20:42:34.226Z,5.26
2019-04-10T20:45:23.148Z,6.00
2019-04-10T20:48:09.640Z,5.53
2019-04-10T20:50:57.384Z,5.42
2019-04-10T20:53:44.284Z,5.32
2019-04-10T20:56:34.763Z,5.29
2019-04-10T20:59:21.013Z,5.26
2019-04-10T21:02:08.223Z,5.21
2019-04-10T21:08:06.206Z,5.33
2019-04-10T21:10:53.210Z,5.23
2019-04-10T21:13:40.636Z,5.87
2019-04-10T21:16:28.654Z,5.35
2019-04-10T21:19:16.614Z,5.26
2019-04-10T21:22:04.338Z,5.23
2019-04-10T21:27:58.614Z,5.15
2019-04-10T21:30:46.476Z,5.11
2019-04-10T21:36:41.579Z,5.01
2019-04-10T21:39:29.662Z,5.60
2019-04-10T21:42:22.285Z,5.07
2019-04-10T21:48:12.603Z,4.90
2019-04-10T21:51:00.503Z,5.49
2019-04-10T21:53:47.368Z,4.94
2019-04-10T21:56:35.158Z,4.72
2019-04-10T21:59:21.151Z,4.58
2019-04-10T22:02:08.452Z,5.20
2019-04-10T22:04:55.981Z,4.61
2019-04-10T22:07:45.994Z,4.42
2019-04-10T22:10:46.642Z,4.29
2019-04-10T22:13:33.441Z,4.19
2019-04-10T22:16:21.973Z,4.11
2019-04-10T22:19:08.001Z,4.02
2019-04-10T22:21:55.792Z,3.97
2019-04-10T22:24:43.916Z,3.92
2019-04-10T22:30:37.203Z,4.00
2019-04-10T22:33:25.017Z,3.84
2019-04-10T22:36:20.635Z,3.69
2019-04-10T22:39:06.775Z,3.58
2019-04-10T22:42:01.160Z,4.19
2019-04-10T22:44:49.893Z,3.51
2019-04-10T22:47:36.701Z,3.35
2019-04-10T22:50:24.463Z,3.22
2019-04-10T22:53:10.381Z,3.15
2019-04-10T22:56:04.764Z,3.06
2019-04-10T22:58:53.201Z,3.00
2019-04-10T23:01:39.791Z,3.69
2019-04-10T23:04:26.480Z,3.82
2019-04-10T23:07:13.582Z,3.89
2019-04-10T23:10:02.576Z,3.93
2019-04-10T23:12:57.543Z,3.97
2019-04-10T23:21:50.920Z,2.85
2019-04-10T23:24:51.949Z,2.64
2019-04-10T23:27:38.746Z,2.42
2019-04-10T23:30:33.020Z,2.29
2019-04-10T23:33:19.763Z,2.20
2019-04-10T23:36:07.656Z,2.16
2019-04-10T23:38:53.949Z,2.86
2019-04-10T23:41:42.083Z,3.11
2019-04-10T23:44:33.163Z,2.52
2019-04-10T23:47:26.332Z,2.39
2019-04-10T23:50:15.024Z,2.33
2019-04-10T23:53:00.624Z,2.29
2019-04-10T23:56:02.204Z,2.26
2019-04-10T23:58:50.645Z,2.24
